createdAt,value
2023-02-11T00:04:55.134Z,2.40
2023-02-11T00:09:58.021Z,2.34
2023-02-11T00:15:00.875Z,2.32
2023-02-11T00:20:05.471Z,2.33
2023-02-11T00:25:10.229Z,2.31
2023-02-11T00:30:13.403Z,2.27
2023-02-11T00:35:16.612Z,2.25
2023-02-11T00:40:20.059Z,2.23
2023-02-11T00:45:22.884Z,2.28
2023-02-11T00:50:25.808Z,2.30
2023-02-11T00:55:28.590Z,2.32
2023-02-11T01:00:31.427Z,2.28
2023-02-11T01:05:34.559Z,2.24
2023-02-11T01:10:37.390Z,2.27
2023-02-11T01:15:40.291Z,2.37
2023-02-11T01:20:43.273Z,2.42
2023-02-11T01:25:46.649Z,2.43
2023-02-11T01:30:49.619Z,2.42
2023-02-11T01:35:53.187Z,2.39
2023-02-11T01:40:58.393Z,2.44
2023-02-11T01:46:19.375Z,2.54
2023-02-11T01:51:29.866Z,2.54
2023-02-11T01:56:55.574Z,2.51
2023-02-11T02:02:04.818Z,2.46
2023-02-11T02:07:16.601Z,2.42
2023-02-11T02:12:19.506Z,2.46
2023-02-11T02:17:38.122Z,2.50
2023-02-11T02:23:02.847Z,2.47
2023-02-11T02:29:17.809Z,2.40
2023-02-11T02:34:52.316Z,2.39
2023-02-11T02:39:55.616Z,2.44
2023-02-11T02:44:58.763Z,2.46
2023-02-11T02:50:01.877Z,2.44
2023-02-11T02:55:25.832Z,2.40
2023-02-11T03:00:45.016Z,2.36
2023-02-11T03:06:11.375Z,2.41
2023-02-11T03:11:18.520Z,2.41
2023-02-11T03:16:26.389Z,2.39
2023-02-11T03:21:32.614Z,2.36
2023-02-11T03:26:50.127Z,2.33
2023-02-11T03:32:16.335Z,2.35
2023-02-11T03:37:49.527Z,2.39
2023-02-11T03:43:22.856Z,2.38
2023-02-11T03:48:31.997Z,2.37
2023-02-11T03:53:36.502Z,2.33
2023-02-11T03:58:39.331Z,2.31
2023-02-11T04:03:42.414Z,2.34
2023-02-11T04:08:45.266Z,2.36
2023-02-11T04:13:48.132Z,2.38
2023-02-11T04:18:50.995Z,2.35
2023-02-11T04:23:53.808Z,2.34
2023-02-11T04:28:56.608Z,2.32
2023-02-11T04:33:59.472Z,2.37
2023-02-11T04:39:02.385Z,2.39
2023-02-11T04:44:05.691Z,2.38
2023-02-11T04:49:08.524Z,2.33
2023-02-11T04:54:11.844Z,2.29
2023-02-11T04:59:14.760Z,2.29
2023-02-11T05:04:17.698Z,2.28
2023-02-11T05:09:20.579Z,2.25
2023-02-11T05:14:23.386Z,2.19
2023-02-11T05:19:26.260Z,2.12
2023-02-11T05:24:29.134Z,2.11
2023-02-11T05:29:32.134Z,2.17
2023-02-11T05:34:36.396Z,2.15
2023-02-11T05:39:39.242Z,2.10
2023-02-11T05:44:42.071Z,2.03
2023-02-11T05:49:44.888Z,1.96
2023-02-11T05:54:47.910Z,1.93
2023-02-11T05:59:50.764Z,1.93
2023-02-11T06:04:53.562Z,1.90
2023-02-11T06:09:56.440Z,1.83
2023-02-11T06:14:59.270Z,1.78
2023-02-11T06:20:03.789Z,1.75
2023-02-11T06:25:07.018Z,1.77
2023-02-11T06:30:10.941Z,1.78
2023-02-11T06:35:14.698Z,1.77
2023-02-11T06:40:17.657Z,1.72
2023-02-11T06:45:20.697Z,1.71
2023-02-11T06:50:23.521Z,1.77
2023-02-11T06:55:26.890Z,1.83
2023-02-11T07:00:29.833Z,1.89
2023-02-11T07:05:34.260Z,1.91
2023-02-11T07:10:37.182Z,1.94
2023-02-11T07:15:40.001Z,1.98
2023-02-11T07:20:43.454Z,2.02
2023-02-11T07:25:46.309Z,2.08
2023-02-11T07:30:49.178Z,2.19
2023-02-11T07:35:52.520Z,2.27
2023-02-11T07:40:55.465Z,2.33
2023-02-11T07:45:58.875Z,2.39
2023-02-11T07:51:14.590Z,2.44
2023-02-11T07:56:19.309Z,2.50
2023-02-11T08:01:28.266Z,2.58
2023-02-11T08:06:34.253Z,2.70
2023-02-11T08:11:37.124Z,2.76
2023-02-11T08:16:40.830Z,2.87
2023-02-11T08:21:44.429Z,2.98
2023-02-11T08:26:47.236Z,3.01
2023-02-11T08:31:50.165Z,3.04
2023-02-11T08:36:54.426Z,3.05
2023-02-11T08:41:57.265Z,3.06
2023-02-11T08:47:00.124Z,3.04
2023-02-11T08:52:04.293Z,2.97
2023-02-11T08:57:07.617Z,2.98
2023-02-11T09:02:14.673Z,3.02
2023-02-11T09:07:17.804Z,3.10
2023-02-11T09:12:20.589Z,3.23
2023-02-11T09:17:23.456Z,3.31
2023-02-11T09:22:26.252Z,3.35
2023-02-11T09:27:29.053Z,3.35
2023-02-11T09:32:31.927Z,3.37
2023-02-11T09:37:37.218Z,3.42
2023-02-11T09:43:09.074Z,3.47
2023-02-11T09:48:19.168Z,3.52
2023-02-11T09:53:31.438Z,3.49
2023-02-11T09:58:37.279Z,3.50
2023-02-11T10:03:55.307Z,3.65
2023-02-11T10:09:10.808Z,3.79
2023-02-11T10:14:28.496Z,3.84
2023-02-11T10:19:38.842Z,3.85
2023-02-11T10:24:50.325Z,3.86
2023-02-11T10:30:30.207Z,3.90
2023-02-11T10:35:33.327Z,3.85
2023-02-11T10:40:36.206Z,3.78
2023-02-11T10:46:02.514Z,3.65
2023-02-11T10:51:23.694Z,3.53
2023-02-11T10:56:28.207Z,3.54
2023-02-11T11:01:53.640Z,3.49
2023-02-11T11:07:28.986Z,3.43
2023-02-11T11:12:42.181Z,3.37
2023-02-11T11:17:46.375Z,3.41
2023-02-11T11:22:51.150Z,3.38
2023-02-11T11:28:00.715Z,3.34
2023-02-11T11:33:03.991Z,3.34
2023-02-11T11:38:07.159Z,3.33
2023-02-11T11:43:13.104Z,3.26
2023-02-11T11:48:31.450Z,3.22
2023-02-11T11:53:41.749Z,3.23
2023-02-11T11:58:44.760Z,3.20
2023-02-11T12:04:30.172Z,3.15
2023-02-11T12:10:08.044Z,3.16
2023-02-11T12:15:57.634Z,3.15
2023-02-11T12:21:35.930Z,3.10
2023-02-11T12:27:26.096Z,3.10
2023-02-11T12:32:37.838Z,3.10
2023-02-11T12:38:22.054Z,3.10
2023-02-11T12:43:38.569Z,3.12
2023-02-11T12:49:44.991Z,3.12
2023-02-11T12:55:04.774Z,3.11
2023-02-11T13:00:22.231Z,3.13
2023-02-11T13:05:37.964Z,3.12
2023-02-11T13:10:43.996Z,3.08
2023-02-11T13:16:23.083Z,3.08
2023-02-11T13:21:37.036Z,3.04
2023-02-11T13:26:47.617Z,3.02
2023-02-11T13:32:09.904Z,3.04
2023-02-11T13:37:37.797Z,3.04
2023-02-11T13:42:56.252Z,3.06
2023-02-11T13:48:02.602Z,3.10
2023-02-11T13:53:10.315Z,3.09
2023-02-11T13:58:33.098Z,3.07
2023-02-11T14:03:57.965Z,3.11
2023-02-11T14:09:09.686Z,3.11
2023-02-11T14:14:33.610Z,3.10
2023-02-11T14:19:43.967Z,3.18
2023-02-11T14:25:00.852Z,3.20
2023-02-11T14:30:30.142Z,3.16
2023-02-11T14:36:13.499Z,3.20
2023-02-11T14:41:30.648Z,3.22
2023-02-11T14:46:34.662Z,3.21
2023-02-11T14:51:40.893Z,3.24
2023-02-11T14:56:44.836Z,3.23
2023-02-11T15:01:52.294Z,3.21
2023-02-11T15:06:59.539Z,3.25
2023-02-11T15:12:03.498Z,3.28
2023-02-11T15:17:08.498Z,3.30
2023-02-11T15:22:26.014Z,3.35
2023-02-11T15:27:38.595Z,3.38
2023-02-11T15:32:45.267Z,3.37
2023-02-11T15:37:50.559Z,3.40
2023-02-11T15:43:13.944Z,3.45
2023-02-11T15:48:28.718Z,3.51
2023-02-11T15:53:41.082Z,3.58
2023-02-11T15:58:47.875Z,3.65
2023-02-11T16:03:50.933Z,3.65
2023-02-11T16:09:12.850Z,3.68
2023-02-11T16:14:31.307Z,3.72
2023-02-11T16:19:36.126Z,3.72
2023-02-11T16:24:39.579Z,3.73
2023-02-11T16:29:47.441Z,3.76
2023-02-11T16:34:51.398Z,3.78
2023-02-11T16:39:55.120Z,3.76
2023-02-11T16:44:58.113Z,3.79
2023-02-11T16:50:02.808Z,3.81
2023-02-11T16:55:06.401Z,3.81
2023-02-11T17:00:11.195Z,3.85
2023-02-11T17:05:22.981Z,3.87
2023-02-11T17:10:25.918Z,3.82
2023-02-11T17:15:28.942Z,3.85
2023-02-11T17:20:31.809Z,3.88
2023-02-11T17:25:37.272Z,3.87
2023-02-11T17:30:43.569Z,3.85
2023-02-11T17:35:46.542Z,3.91
2023-02-11T17:40:58.882Z,3.91
2023-02-11T17:46:01.790Z,3.91
2023-02-11T17:51:26.910Z,3.94
2023-02-11T17:56:33.264Z,3.98
2023-02-11T18:01:38.638Z,3.93
2023-02-11T18:06:41.555Z,3.95
2023-02-11T18:11:44.579Z,3.98
2023-02-11T18:16:53.007Z,3.95
2023-02-11T18:21:55.917Z,3.96
2023-02-11T18:26:59.004Z,4.01
2023-02-11T18:32:01.923Z,4.03
2023-02-11T18:37:04.755Z,4.02
2023-02-11T18:42:07.592Z,4.04
2023-02-11T18:47:10.409Z,4.09
2023-02-11T18:52:13.226Z,4.09
2023-02-11T18:57:16.023Z,4.09
2023-02-11T19:02:18.916Z,4.13
2023-02-11T19:07:21.744Z,4.13
2023-02-11T19:12:24.835Z,4.11
2023-02-11T19:17:27.779Z,4.15
2023-02-11T19:22:30.625Z,4.20
2023-02-11T19:27:33.860Z,4.21
2023-02-11T19:32:36.871Z,4.23
2023-02-11T19:37:39.698Z,4.28
2023-02-11T19:42:42.828Z,4.31
2023-02-11T19:47:45.654Z,4.29
2023-02-11T19:52:48.530Z,4.36
2023-02-11T19:57:51.354Z,4.38
2023-02-11T20:02:54.281Z,4.38
2023-02-11T20:07:58.155Z,4.41
2023-02-11T20:13:00.932Z,4.44
2023-02-11T20:18:03.955Z,4.43
2023-02-11T20:23:06.770Z,4.38
2023-02-11T20:28:09.613Z,4.35
2023-02-11T20:33:12.445Z,4.41
2023-02-11T20:38:15.272Z,4.47
2023-02-11T20:43:19.082Z,4.46
2023-02-11T20:48:21.787Z,4.45
2023-02-11T20:53:24.627Z,4.46
2023-02-11T20:58:27.469Z,4.45
2023-02-11T21:03:30.339Z,4.41
2023-02-11T21:08:33.237Z,4.41
2023-02-11T21:13:37.527Z,4.42
2023-02-11T21:18:40.558Z,4.43
2023-02-11T21:23:43.707Z,4.43
2023-02-11T21:28:46.605Z,4.43
2023-02-11T21:33:50.940Z,4.49
2023-02-11T21:38:53.906Z,4.47
2023-02-11T21:43:57.732Z,4.44
2023-02-11T21:49:00.606Z,4.47
2023-02-11T21:54:03.982Z,4.52
2023-02-11T21:59:06.853Z,4.51
2023-02-11T22:04:09.824Z,4.48
2023-02-11T22:09:13.004Z,4.49
2023-02-11T22:14:16.449Z,4.54
2023-02-11T22:19:19.304Z,4.54
2023-02-11T22:24:22.139Z,4.51
2023-02-11T22:29:24.944Z,4.47
2023-02-11T22:34:27.805Z,4.52
2023-02-11T22:39:30.991Z,4.47
2023-02-11T22:44:33.808Z,4.46
2023-02-11T22:49:39.591Z,4.43
2023-02-11T22:54:42.491Z,4.42
2023-02-11T22:59:45.395Z,4.45
2023-02-11T23:04:49.926Z,4.39
2023-02-11T23:09:52.846Z,4.37
2023-02-11T23:14:55.650Z,4.38
2023-02-11T23:19:58.509Z,4.35
2023-02-11T23:25:01.371Z,4.36
2023-02-11T23:30:05.253Z,4.37
2023-02-11T23:35:08.370Z,4.39
2023-02-11T23:40:11.915Z,4.42
2023-02-11T23:45:15.434Z,4.42
2023-02-11T23:50:18.587Z,4.40
2023-02-11T23:55:21.517Z,4.38
